sensor_id;sensor_type;location;lat;lon;timestamp;pressure;altitude;pressure_sealevel;temperature;humidity
75359;BME280;64046;51.978;5.934;2022-10-16T00:01:55;100881.59;;;17.69;100.00
75359;BME280;64046;51.978;5.934;2022-10-16T00:04:24;100874.50;;;17.69;100.00
75359;BME280;64046;51.978;5.934;2022-10-16T00:06:53;100881.59;;;17.69;100.00
75359;BME280;64046;51.978;5.934;2022-10-16T00:09:22;100874.84;;;17.64;100.00
75359;BME280;64046;51.978;5.934;2022-10-16T00:11:54;100875.63;;;17.78;100.00
75359;BME280;64046;51.978;5.934;2022-10-16T00:14:23;100886.84;;;17.57;100.00
75359;BME280;64046;51.978;5.934;2022-10-16T00:16:52;100881.03;;;17.52;100.00
75359;BME280;64046;51.978;5.934;2022-10-16T00:19:22;100868.13;;;17.47;100.00
75359;BME280;64046;51.978;5.934;2022-10-16T00:21:51;100871.50;;;17.50;100.00
75359;BME280;64046;51.978;5.934;2022-10-16T00:24:20;100878.72;;;17.47;100.00
75359;BME280;64046;51.978;5.934;2022-10-16T00:26:50;100880.28;;;17.50;100.00
75359;BME280;64046;51.978;5.934;2022-10-16T00:29:22;100876.25;;;17.57;100.00
75359;BME280;64046;51.978;5.934;2022-10-16T00:31:51;100872.16;;;17.40;100.00
75359;BME280;64046;51.978;5.934;2022-10-16T00:34:20;100869.75;;;17.37;100.00
75359;BME280;64046;51.978;5.934;2022-10-16T00:36:49;100871.88;;;17.32;100.00
75359;BME280;64046;51.978;5.934;2022-10-16T00:39:18;100869.31;;;17.30;100.00
75359;BME280;64046;51.978;5.934;2022-10-16T00:41:48;100873.91;;;17.28;100.00
75359;BME280;64046;51.978;5.934;2022-10-16T00:47:25;100878.72;;;17.47;100.00
75359;BME280;64046;51.978;5.934;2022-10-16T00:49:59;100879.69;;;17.46;100.00
75359;BME280;64046;51.978;5.934;2022-10-16T00:52:29;100883.56;;;17.29;100.00
75359;BME280;64046;51.978;5.934;2022-10-16T00:54:58;100872.97;;;17.29;100.00
75359;BME280;64046;51.978;5.934;2022-10-16T00:57:29;100870.19;;;17.31;100.00
75359;BME280;64046;51.978;5.934;2022-10-16T00:59:58;100879.72;;;17.34;100.00
75359;BME280;64046;51.978;5.934;2022-10-16T01:02:30;100886.66;;;17.47;100.00
75359;BME280;64046;51.978;5.934;2022-10-16T01:04:59;100883.94;;;17.36;100.00
75359;BME280;64046;51.978;5.934;2022-10-16T01:07:36;100886.25;;;17.54;100.00
75359;BME280;64046;51.978;5.934;2022-10-16T01:10:16;100880.19;;;17.52;100.00
75359;BME280;64046;51.978;5.934;2022-10-16T01:12:51;100888.06;;;17.40;100.00
75359;BME280;64046;51.978;5.934;2022-10-16T01:15:26;100891.13;;;17.47;100.00
75359;BME280;64046;51.978;5.934;2022-10-16T01:18:03;100889.72;;;17.54;100.00
75359;BME280;64046;51.978;5.934;2022-10-16T01:20:40;100882.84;;;17.52;100.00
75359;BME280;64046;51.978;5.934;2022-10-16T01:23:21;100884.31;;;17.56;100.00
75359;BME280;64046;51.978;5.934;2022-10-16T01:26:11;100873.59;;;17.57;100.00
75359;BME280;64046;51.978;5.934;2022-10-16T01:28:49;100870.66;;;17.49;100.00
75359;BME280;64046;51.978;5.934;2022-10-16T01:31:24;100870.75;;;17.47;100.00
75359;BME280;64046;51.978;5.934;2022-10-16T01:33:57;100877.66;;;17.50;100.00
75359;BME280;64046;51.978;5.934;2022-10-16T01:36:33;100870.34;;;17.54;100.00
75359;BME280;64046;51.978;5.934;2022-10-16T01:39:05;100866.22;;;17.50;100.00
75359;BME280;64046;51.978;5.934;2022-10-16T01:41:39;100886.53;;;17.49;100.00
75359;BME280;64046;51.978;5.934;2022-10-16T01:44:17;100883.66;;;17.52;100.00
75359;BME280;64046;51.978;5.934;2022-10-16T01:46:50;100873.53;;;17.46;100.00
75359;BME280;64046;51.978;5.934;2022-10-16T01:49:21;100873.88;;;17.41;100.00
75359;BME280;64046;51.978;5.934;2022-10-16T01:51:54;100877.66;;;17.50;100.00
75359;BME280;64046;51.978;5.934;2022-10-16T01:54:28;100880.19;;;17.52;100.00
75359;BME280;64046;51.978;5.934;2022-10-16T01:57:00;100873.53;;;17.46;100.00
75359;BME280;64046;51.978;5.934;2022-10-16T01:59:42;100878.44;;;17.63;100.00
75359;BME280;64046;51.978;5.934;2022-10-16T02:02:14;100892.97;;;17.58;100.00
75359;BME280;64046;51.978;5.934;2022-10-16T02:04:46;100898.91;;;17.61;100.00
75359;BME280;64046;51.978;5.934;2022-10-16T02:07:17;100886.44;;;17.51;100.00
75359;BME280;64046;51.978;5.934;2022-10-16T02:09:46;100884.66;;;17.51;100.00
75359;BME280;64046;51.978;5.934;2022-10-16T02:12:19;100874.31;;;17.59;100.00
75359;BME280;64046;51.978;5.934;2022-10-16T02:14:52;100874.44;;;17.58;100.00
75359;BME280;64046;51.978;5.934;2022-10-16T02:17:22;100888.69;;;17.44;100.00
75359;BME280;64046;51.978;5.934;2022-10-16T02:19:54;100893.31;;;17.53;100.00
75359;BME280;64046;51.978;5.934;2022-10-16T02:22:27;100893.09;;;17.56;100.00
75359;BME280;64046;51.978;5.934;2022-10-16T02:24:59;100873.81;;;17.54;100.00
75359;BME280;64046;51.978;5.934;2022-10-16T02:27:33;100891.91;;;17.60;100.00
75359;BME280;64046;51.978;5.934;2022-10-16T02:30:11;100890.72;;;17.64;100.00
75359;BME280;64046;51.978;5.934;2022-10-16T02:32:43;100893.84;;;17.58;100.00
75359;BME280;64046;51.978;5.934;2022-10-16T02:35:15;100882.25;;;17.59;100.00
75359;BME280;64046;51.978;5.934;2022-10-16T02:37:46;100895.25;;;17.51;100.00
75359;BME280;64046;51.978;5.934;2022-10-16T02:40:17;100899.13;;;17.58;100.00
75359;BME280;64046;51.978;5.934;2022-10-16T02:42:50;100883.63;;;17.65;100.00
75359;BME280;64046;51.978;5.934;2022-10-16T02:45:25;100882.06;;;17.62;100.00
75359;BME280;64046;51.978;5.934;2022-10-16T02:47:55;100892.81;;;17.48;100.00
75359;BME280;64046;51.978;5.934;2022-10-16T02:50:24;100897.13;;;17.49;100.00
75359;BME280;64046;51.978;5.934;2022-10-16T02:52:53;100888.47;;;17.47;100.00
75359;BME280;64046;51.978;5.934;2022-10-16T02:55:22;100890.59;;;17.42;100.00
75359;BME280;64046;51.978;5.934;2022-10-16T02:57:52;100892.53;;;17.40;100.00
75359;BME280;64046;51.978;5.934;2022-10-16T03:00:21;100906.72;;;17.39;100.00
75359;BME280;64046;51.978;5.934;2022-10-16T03:02:53;100906.91;;;17.49;100.00
75359;BME280;64046;51.978;5.934;2022-10-16T03:05:22;100904.28;;;17.36;100.00
75359;BME280;64046;51.978;5.934;2022-10-16T03:07:51;100898.16;;;17.35;100.00
75359;BME280;64046;51.978;5.934;2022-10-16T03:10:20;100899.00;;;17.36;100.00
75359;BME280;64046;51.978;5.934;2022-10-16T03:12:49;100902.38;;;17.38;100.00
75359;BME280;64046;51.978;5.934;2022-10-16T03:15:18;100890.72;;;17.40;100.00
75359;BME280;64046;51.978;5.934;2022-10-16T03:17:47;100882.53;;;17.43;100.00
75359;BME280;64046;51.978;5.934;2022-10-16T03:20:19;100879.72;;;17.58;100.00
75359;BME280;64046;51.978;5.934;2022-10-16T03:22:48;100893.47;;;17.39;100.00
75359;BME280;64046;51.978;5.934;2022-10-16T03:25:17;100910.19;;;17.39;100.00
75359;BME280;64046;51.978;5.934;2022-10-16T03:27:46;100901.53;;;17.37;100.00
75359;BME280;64046;51.978;5.934;2022-10-16T03:30:15;100919.00;;;17.40;100.00
75359;BME280;64046;51.978;5.934;2022-10-16T03:32:45;100911.78;;;17.42;100.00
75359;BME280;64046;51.978;5.934;2022-10-16T03:35:14;100908.31;;;17.41;100.00
75359;BME280;64046;51.978;5.934;2022-10-16T03:37:46;100907.44;;;17.54;100.00
75359;BME280;64046;51.978;5.934;2022-10-16T03:40:16;100908.91;;;17.45;100.00
75359;BME280;64046;51.978;5.934;2022-10-16T03:42:45;100909.13;;;17.42;100.00
75359;BME280;64046;51.978;5.934;2022-10-16T03:45:14;100910.00;;;17.42;100.00
75359;BME280;64046;51.978;5.934;2022-10-16T03:47:43;100922.59;;;17.39;100.00
75359;BME280;64046;51.978;5.934;2022-10-16T03:50:13;100920.06;;;17.37;100.00
75359;BME280;64046;51.978;5.934;2022-10-16T03:52:42;100924.66;;;17.35;100.00
75359;BME280;64046;51.978;5.934;2022-10-16T03:55:14;100924.38;;;17.51;100.00
75359;BME280;64046;51.978;5.934;2022-10-16T03:57:43;100920.06;;;17.37;100.00
75359;BME280;64046;51.978;5.934;2022-10-16T04:00:13;100918.16;;;17.39;100.00
75359;BME280;64046;51.978;5.934;2022-10-16T04:02:43;100914.78;;;17.37;100.00
75359;BME280;64046;51.978;5.934;2022-10-16T04:05:12;100918.38;;;17.36;100.00
75359;BME280;64046;51.978;5.934;2022-10-16T04:07:41;100928.84;;;17.38;100.00
75359;BME280;64046;51.978;5.934;2022-10-16T04:10:10;100927.28;;;17.35;100.00
75359;BME280;64046;51.978;5.934;2022-10-16T04:12:42;100933.16;;;17.52;100.00
75359;BME280;64046;51.978;5.934;2022-10-16T04:15:11;100931.72;;;17.35;100.00
75359;BME280;64046;51.978;5.934;2022-10-16T04:17:40;100939.44;;;17.38;100.00
75359;BME280;64046;51.978;5.934;2022-10-16T04:20:09;100944.56;;;17.41;100.00
75359;BME280;64046;51.978;5.934;2022-10-16T04:22:38;100955.97;;;17.41;100.00
75359;BME280;64046;51.978;5.934;2022-10-16T04:25:08;100950.00;;;17.51;100.00
75359;BME280;64046;51.978;5.934;2022-10-16T04:27:38;100952.50;;;17.41;100.00
75359;BME280;64046;51.978;5.934;2022-10-16T04:30:10;100959.44;;;17.55;100.00
75359;BME280;64046;51.978;5.934;2022-10-16T04:32:39;100963.19;;;17.39;100.00
75359;BME280;64046;51.978;5.934;2022-10-16T04:35:08;100966.69;;;17.40;100.00
75359;BME280;64046;51.978;5.934;2022-10-16T04:37:37;100972.00;;;17.40;100.00
75359;BME280;64046;51.978;5.934;2022-10-16T04:40:07;100974.09;;;17.47;100.00
75359;BME280;64046;51.978;5.934;2022-10-16T04:42:36;100966.69;;;17.40;100.00
75359;BME280;64046;51.978;5.934;2022-10-16T04:45:09;100977.59;;;17.48;100.00
75359;BME280;64046;51.978;5.934;2022-10-16T04:47:38;100981.84;;;17.38;100.00
75359;BME280;64046;51.978;5.934;2022-10-16T04:50:08;100978.13;;;17.40;100.00
75359;BME280;64046;51.978;5.934;2022-10-16T04:52:37;100980.47;;;17.32;100.00
75359;BME280;64046;51.978;5.934;2022-10-16T04:55:07;100973.88;;;17.38;100.00
75359;BME280;64046;51.978;5.934;2022-10-16T04:57:36;100985.03;;;17.30;100.00
75359;BME280;64046;51.978;5.934;2022-10-16T05:00:06;100988.31;;;17.34;100.00
75359;BME280;64046;51.978;5.934;2022-10-16T05:02:38;100998.25;;;17.43;100.00
75359;BME280;64046;51.978;5.934;2022-10-16T05:05:07;100998.06;;;17.33;100.00
75359;BME280;64046;51.978;5.934;2022-10-16T05:07:36;100994.78;;;17.29;100.00
75359;BME280;64046;51.978;5.934;2022-10-16T05:10:06;100987.47;;;17.33;100.00
75359;BME280;64046;51.978;5.934;2022-10-16T05:12:35;101003.34;;;17.33;100.00
75359;BME280;64046;51.978;5.934;2022-10-16T05:15:05;101008.22;;;17.39;100.00
75359;BME280;64046;51.978;5.934;2022-10-16T05:17:34;100994.56;;;17.33;100.00
75359;BME280;64046;51.978;5.934;2022-10-16T05:20:07;101008.41;;;17.49;100.00
75359;BME280;64046;51.978;5.934;2022-10-16T05:22:36;101015.97;;;17.29;100.00
75359;BME280;64046;51.978;5.934;2022-10-16T05:25:06;101018.19;;;17.36;100.00
75359;BME280;64046;51.978;5.934;2022-10-16T05:27:35;101019.56;;;17.28;100.00
75359;BME280;64046;51.978;5.934;2022-10-16T05:30:06;101020.63;;;17.39;100.00
75359;BME280;64046;51.978;5.934;2022-10-16T05:32:35;101032.91;;;17.27;100.00
75359;BME280;64046;51.978;5.934;2022-10-16T05:35:07;101033.75;;;17.40;100.00
75359;BME280;64046;51.978;5.934;2022-10-16T05:37:36;101038.53;;;17.22;100.00
75359;BME280;64046;51.978;5.934;2022-10-16T05:40:07;101031.00;;;17.29;100.00
75359;BME280;64046;51.978;5.934;2022-10-16T05:42:36;101037.91;;;17.19;100.00
75359;BME280;64046;51.978;5.934;2022-10-16T05:45:08;101048.06;;;17.25;100.00
75359;BME280;64046;51.978;5.934;2022-10-16T05:47:38;101055.91;;;17.14;100.00
75359;BME280;64046;51.978;5.934;2022-10-16T05:50:10;101054.00;;;17.28;100.00
75359;BME280;64046;51.978;5.934;2022-10-16T05:52:39;101059.81;;;17.08;100.00
75359;BME280;64046;51.978;5.934;2022-10-16T05:55:08;101063.84;;;17.14;100.00
75359;BME280;64046;51.978;5.934;2022-10-16T05:57:37;101067.84;;;17.06;100.00
75359;BME280;64046;51.978;5.934;2022-10-16T06:00:08;101065.00;;;17.09;100.00
75359;BME280;64046;51.978;5.934;2022-10-16T06:02:40;101074.44;;;17.01;100.00
75359;BME280;64046;51.978;5.934;2022-10-16T06:05:12;101079.75;;;17.14;100.00
75359;BME280;64046;51.978;5.934;2022-10-16T06:07:41;101082.66;;;16.96;100.00
75359;BME280;64046;51.978;5.934;2022-10-16T06:10:11;101088.06;;;16.94;100.00
75359;BME280;64046;51.978;5.934;2022-10-16T06:12:40;101078.41;;;16.93;100.00
75359;BME280;64046;51.978;5.934;2022-10-16T06:15:09;101086.34;;;16.93;100.00
75359;BME280;64046;51.978;5.934;2022-10-16T06:17:38;101091.97;;;16.89;100.00
75359;BME280;64046;51.978;5.934;2022-10-16T06:20:08;101098.53;;;16.96;100.00
75359;BME280;64046;51.978;5.934;2022-10-16T06:22:40;101095.28;;;17.05;100.00
75359;BME280;64046;51.978;5.934;2022-10-16T06:25:09;101115.78;;;16.89;100.00
75359;BME280;64046;51.978;5.934;2022-10-16T06:27:39;101101.84;;;17.00;100.00
75359;BME280;64046;51.978;5.934;2022-10-16T06:30:09;101105.34;;;17.00;100.00
75359;BME280;64046;51.978;5.934;2022-10-16T06:32:38;101103.94;;;16.94;100.00
75359;BME280;64046;51.978;5.934;2022-10-16T06:35:08;101105.34;;;17.00;100.00
75359;BME280;64046;51.978;5.934;2022-10-16T06:37:39;101108.09;;;16.99;100.00
75359;BME280;64046;51.978;5.934;2022-10-16T06:40:09;101112.22;;;17.03;100.00
75359;BME280;64046;51.978;5.934;2022-10-16T06:42:40;101115.59;;;17.05;100.00
75359;BME280;64046;51.978;5.934;2022-10-16T06:45:10;101118.38;;;17.16;100.00
75359;BME280;64046;51.978;5.934;2022-10-16T06:47:39;101130.13;;;17.12;100.00
75359;BME280;64046;51.978;5.934;2022-10-16T06:50:08;101133.22;;;17.19;100.00
75359;BME280;64046;51.978;5.934;2022-10-16T06:52:40;101143.00;;;17.31;100.00
75359;BME280;64046;51.978;5.934;2022-10-16T06:55:09;101148.28;;;17.18;100.00
75359;BME280;64046;51.978;5.934;2022-10-16T06:57:38;101154.41;;;17.19;100.00
75359;BME280;64046;51.978;5.934;2022-10-16T07:00:08;101159.72;;;17.32;100.00
75359;BME280;64046;51.978;5.934;2022-10-16T07:02:37;101158.03;;;17.30;100.00
75359;BME280;64046;51.978;5.934;2022-10-16T07:05:07;101165.16;;;17.43;100.00
75359;BME280;64046;51.978;5.934;2022-10-16T07:07:36;101169.63;;;17.42;100.00
75359;BME280;64046;51.978;5.934;2022-10-16T07:10:08;101167.28;;;17.63;100.00
75359;BME280;64046;51.978;5.934;2022-10-16T07:12:37;101176.19;;;17.50;100.00
75359;BME280;64046;51.978;5.934;2022-10-16T07:15:08;101173.66;;;17.61;100.00
75359;BME280;64046;51.978;5.934;2022-10-16T07:17:38;101190.72;;;17.57;100.00
75359;BME280;64046;51.978;5.934;2022-10-16T07:20:08;101185.72;;;17.65;100.00
75359;BME280;64046;51.978;5.934;2022-10-16T07:22:38;101194.75;;;17.62;100.00
75359;BME280;64046;51.978;5.934;2022-10-16T07:25:10;101199.00;;;17.78;100.00
75359;BME280;64046;51.978;5.934;2022-10-16T07:27:39;101195.50;;;17.64;100.00
75359;BME280;64046;51.978;5.934;2022-10-16T07:30:09;101209.06;;;17.73;100.00
75359;BME280;64046;51.978;5.934;2022-10-16T07:32:38;101216.16;;;17.72;100.00
75359;BME280;64046;51.978;5.934;2022-10-16T07:35:08;101222.00;;;17.77;100.00
75359;BME280;64046;51.978;5.934;2022-10-16T07:37:37;101233.38;;;17.79;100.00
75359;BME280;64046;51.978;5.934;2022-10-16T07:40:10;101232.53;;;17.92;100.00
75359;BME280;64046;51.978;5.934;2022-10-16T07:42:39;101240.59;;;17.90;100.00
75359;BME280;64046;51.978;5.934;2022-10-16T07:45:08;101241.88;;;17.97;100.00
75359;BME280;64046;51.978;5.934;2022-10-16T07:47:37;101247.28;;;17.96;100.00
75359;BME280;64046;51.978;5.934;2022-10-16T07:50:07;101247.28;;;18.09;100.00
75359;BME280;64046;51.978;5.934;2022-10-16T07:52:37;101246.47;;;18.08;100.00
75359;BME280;64046;51.978;5.934;2022-10-16T07:55:06;101245.47;;;18.22;100.00
75359;BME280;64046;51.978;5.934;2022-10-16T07:57:38;101245.34;;;18.37;100.00
75359;BME280;64046;51.978;5.934;2022-10-16T08:00:09;101259.38;;;18.39;100.00
75359;BME280;64046;51.978;5.934;2022-10-16T08:02:40;101258.50;;;18.38;100.00
75359;BME280;64046;51.978;5.934;2022-10-16T08:05:09;101262.88;;;18.39;100.00
75359;BME280;64046;51.978;5.934;2022-10-16T08:07:38;101263.28;;;18.46;100.00
75359;BME280;64046;51.978;5.934;2022-10-16T08:10:12;101258.88;;;18.71;100.00
75359;BME280;64046;51.978;5.934;2022-10-16T08:12:47;101263.97;;;18.74;100.00
75359;BME280;64046;51.978;5.934;2022-10-16T08:15:16;101266.75;;;18.72;100.00
75359;BME280;64046;51.978;5.934;2022-10-16T08:17:54;101266.81;;;18.96;100.00
75359;BME280;64046;51.978;5.934;2022-10-16T08:20:23;101265.34;;;18.79;100.00
75359;BME280;64046;51.978;5.934;2022-10-16T08:22:53;101278.94;;;18.88;100.00
75359;BME280;64046;51.978;5.934;2022-10-16T08:25:23;101285.19;;;18.99;100.00
75359;BME280;64046;51.978;5.934;2022-10-16T08:27:55;101281.41;;;19.15;100.00
75359;BME280;64046;51.978;5.934;2022-10-16T08:30:25;101277.72;;;19.05;100.00
75359;BME280;64046;51.978;5.934;2022-10-16T08:32:54;101286.25;;;18.97;100.00
75359;BME280;64046;51.978;5.934;2022-10-16T08:35:24;101293.47;;;18.95;100.00
75359;BME280;64046;51.978;5.934;2022-10-16T08:37:53;101293.72;;;18.92;100.00
75359;BME280;64046;51.978;5.934;2022-10-16T08:40:24;101298.75;;;19.08;100.00
75359;BME280;64046;51.978;5.934;2022-10-16T08:43:21;101302.09;;;19.23;100.00
75359;BME280;64046;51.978;5.934;2022-10-16T08:46:06;101303.91;;;19.22;100.00
75359;BME280;64046;51.978;5.934;2022-10-16T08:48:45;101310.75;;;19.13;100.00
75359;BME280;64046;51.978;5.934;2022-10-16T08:51:20;101305.97;;;19.18;100.00
75359;BME280;64046;51.978;5.934;2022-10-16T08:53:53;101304.75;;;19.23;100.00
75359;BME280;64046;51.978;5.934;2022-10-16T08:56:24;101321.78;;;19.20;100.00
75359;BME280;64046;51.978;5.934;2022-10-16T08:58:58;101309.06;;;19.36;100.00
75359;BME280;64046;51.978;5.934;2022-10-16T09:01:36;101328.91;;;19.44;100.00
75359;BME280;64046;51.978;5.934;2022-10-16T09:07:15;101339.03;;;19.39;100.00
75359;BME280;64046;51.978;5.934;2022-10-16T09:09:57;101334.84;;;19.47;100.00
75359;BME280;64046;51.978;5.934;2022-10-16T09:12:34;101342.47;;;19.52;100.00
75359;BME280;64046;51.978;5.934;2022-10-16T09:15:17;101344.13;;;19.66;100.00
75359;BME280;64046;51.978;5.934;2022-10-16T09:17:54;101349.94;;;19.71;100.00
75359;BME280;64046;51.978;5.934;2022-10-16T09:20:42;101356.78;;;19.86;100.00
75359;BME280;64046;51.978;5.934;2022-10-16T09:23:16;101351.16;;;19.78;100.00
75359;BME280;64046;51.978;5.934;2022-10-16T09:25:47;101353.50;;;19.83;100.00
75359;BME280;64046;51.978;5.934;2022-10-16T09:28:18;101354.59;;;19.80;100.00
75359;BME280;64046;51.978;5.934;2022-10-16T09:30:50;101355.00;;;19.98;100.00
75359;BME280;64046;51.978;5.934;2022-10-16T09:33:22;101359.38;;;19.99;100.00
75359;BME280;64046;51.978;5.934;2022-10-16T09:35:53;101357.19;;;19.93;100.00
75359;BME280;64046;51.978;5.934;2022-10-16T09:38:26;101364.06;;;19.96;100.00
75359;BME280;64046;51.978;5.934;2022-10-16T09:40:58;101354.19;;;19.98;100.00
75359;BME280;64046;51.978;5.934;2022-10-16T09:43:32;101373.28;;;20.03;99.70
75359;BME280;64046;51.978;5.934;2022-10-16T09:46:07;101367.88;;;20.04;100.00
75359;BME280;64046;51.978;5.934;2022-10-16T09:48:38;101381.06;;;20.06;99.93
75359;BME280;64046;51.978;5.934;2022-10-16T09:51:19;101383.63;;;20.19;99.14
75359;BME280;64046;51.978;5.934;2022-10-16T09:53:48;101385.88;;;20.01;99.94
75359;BME280;64046;51.978;5.934;2022-10-16T09:56:24;101393.06;;;20.12;99.50
75359;BME280;64046;51.978;5.934;2022-10-16T09:58:54;101386.75;;;20.13;99.18
75359;BME280;64046;51.978;5.934;2022-10-16T10:01:31;101390.78;;;20.30;98.59
75359;BME280;64046;51.978;5.934;2022-10-16T10:04:05;101389.19;;;20.27;98.14
75359;BME280;64046;51.978;5.934;2022-10-16T10:06:36;101394.03;;;20.22;97.11
75359;BME280;64046;51.978;5.934;2022-10-16T10:09:15;101394.19;;;20.32;96.80
75359;BME280;64046;51.978;5.934;2022-10-16T10:11:51;101405.31;;;20.37;96.74
75359;BME280;64046;51.978;5.934;2022-10-16T10:14:27;101394.69;;;20.48;96.55
75359;BME280;64046;51.978;5.934;2022-10-16T10:17:20;101403.41;;;20.62;95.90
75359;BME280;64046;51.978;5.934;2022-10-16T10:19:52;101400.88;;;20.60;95.68
75359;BME280;64046;51.978;5.934;2022-10-16T10:22:29;101398.50;;;20.68;94.75
75359;BME280;64046;51.978;5.934;2022-10-16T10:25:22;101396.22;;;20.86;92.90
75359;BME280;64046;51.978;5.934;2022-10-16T10:28:15;101397.78;;;20.89;92.56
75359;BME280;64046;51.978;5.934;2022-10-16T10:30:54;101395.97;;;20.89;92.84
75359;BME280;64046;51.978;5.934;2022-10-16T10:33:32;101397.06;;;20.98;92.41
75359;BME280;64046;51.978;5.934;2022-10-16T10:36:14;101405.31;;;21.06;90.58
75359;BME280;64046;51.978;5.934;2022-10-16T10:38:50;101405.44;;;21.05;90.04
75359;BME280;64046;51.978;5.934;2022-10-16T10:41:34;101412.69;;;21.14;89.30
75359;BME280;64046;51.978;5.934;2022-10-16T10:44:14;101406.13;;;21.18;88.46
75359;BME280;64046;51.978;5.934;2022-10-16T10:46:50;101415.84;;;21.19;86.34
75359;BME280;64046;51.978;5.934;2022-10-16T10:49:34;101416.16;;;21.26;85.60
75359;BME280;64046;51.978;5.934;2022-10-16T10:52:19;101415.06;;;21.29;84.19
75359;BME280;64046;51.978;5.934;2022-10-16T10:55:06;101416.03;;;21.27;83.71
75359;BME280;64046;51.978;5.934;2022-10-16T10:57:45;101414.94;;;21.30;82.99
75359;BME280;64046;51.978;5.934;2022-10-16T11:00:21;101424.78;;;21.30;82.06
75359;BME280;64046;51.978;5.934;2022-10-16T11:02:59;101433.16;;;21.36;80.28
75359;BME280;64046;51.978;5.934;2022-10-16T11:05:43;101433.22;;;21.46;78.19
75359;BME280;64046;51.978;5.934;2022-10-16T11:08:17;101432.75;;;21.41;77.72
75359;BME280;64046;51.978;5.934;2022-10-16T11:10:52;101441.00;;;21.49;77.35
75359;BME280;64046;51.978;5.934;2022-10-16T11:13:28;101435.66;;;21.49;76.52
75359;BME280;64046;51.978;5.934;2022-10-16T11:16:02;101438.44;;;21.48;76.83
75359;BME280;64046;51.978;5.934;2022-10-16T11:18:40;101428.63;;;21.59;75.34
75359;BME280;64046;51.978;5.934;2022-10-16T11:21:18;101437.47;;;21.60;73.68
75359;BME280;64046;51.978;5.934;2022-10-16T11:23:53;101444.78;;;21.58;72.91
75359;BME280;64046;51.978;5.934;2022-10-16T11:26:26;101447.28;;;21.48;73.67
75359;BME280;64046;51.978;5.934;2022-10-16T11:28:56;101445.00;;;21.43;73.09
75359;BME280;64046;51.978;5.934;2022-10-16T11:31:29;101456.16;;;21.60;72.02
75359;BME280;64046;51.978;5.934;2022-10-16T11:34:06;101460.97;;;21.66;71.11
75359;BME280;64046;51.978;5.934;2022-10-16T11:36:47;101457.94;;;21.71;70.20
75359;BME280;64046;51.978;5.934;2022-10-16T11:39:21;101462.69;;;21.67;69.57
75359;BME280;64046;51.978;5.934;2022-10-16T11:41:53;101451.16;;;21.67;69.49
75359;BME280;64046;51.978;5.934;2022-10-16T11:44:45;101451.41;;;21.75;67.92
75359;BME280;64046;51.978;5.934;2022-10-16T11:47:27;101453.94;;;21.76;68.58
75359;BME280;64046;51.978;5.934;2022-10-16T11:50:02;101452.38;;;21.74;68.37
75359;BME280;64046;51.978;5.934;2022-10-16T11:52:40;101453.47;;;21.71;67.74
75359;BME280;64046;51.978;5.934;2022-10-16T11:55:15;101466.56;;;21.63;66.70
75359;BME280;64046;51.978;5.934;2022-10-16T11:57:49;101460.63;;;21.48;65.77
75359;BME280;64046;51.978;5.934;2022-10-16T12:00:22;101462.09;;;21.41;66.43
75359;BME280;64046;51.978;5.934;2022-10-16T12:02:59;101472.53;;;21.55;67.12
75359;BME280;64046;51.978;5.934;2022-10-16T12:05:42;101467.66;;;21.60;65.71
75359;BME280;64046;51.978;5.934;2022-10-16T12:08:21;101473.97;;;21.59;66.27
75359;BME280;64046;51.978;5.934;2022-10-16T12:10:51;101475.16;;;21.44;66.90
75359;BME280;64046;51.978;5.934;2022-10-16T12:13:32;101474.53;;;21.74;65.94
75359;BME280;64046;51.978;5.934;2022-10-16T12:16:20;101483.88;;;21.80;66.20
75359;BME280;64046;51.978;5.934;2022-10-16T12:19:09;101482.28;;;21.77;66.69
75359;BME280;64046;51.978;5.934;2022-10-16T12:21:40;101480.03;;;21.62;67.60
75359;BME280;64046;51.978;5.934;2022-10-16T12:24:30;101489.34;;;21.78;66.51
75359;BME280;64046;51.978;5.934;2022-10-16T12:27:00;101488.16;;;21.60;67.43
75359;BME280;64046;51.978;5.934;2022-10-16T12:29:35;101477.81;;;21.78;67.36
75359;BME280;64046;51.978;5.934;2022-10-16T12:32:18;101462.66;;;21.78;67.05
75359;BME280;64046;51.978;5.934;2022-10-16T12:34:51;101490.66;;;21.73;66.19
75359;BME280;64046;51.978;5.934;2022-10-16T12:37:23;101488.81;;;21.85;63.93
75359;BME280;64046;51.978;5.934;2022-10-16T12:39:56;101490.03;;;21.81;62.98
75359;BME280;64046;51.978;5.934;2022-10-16T12:42:34;101488.69;;;21.86;63.02
75359;BME280;64046;51.978;5.934;2022-10-16T12:45:24;101483.44;;;21.96;63.05
75359;BME280;64046;51.978;5.934;2022-10-16T12:47:55;101493.91;;;21.88;63.83
75359;BME280;64046;51.978;5.934;2022-10-16T12:50:31;101486.34;;;22.04;63.27
75359;BME280;64046;51.978;5.934;2022-10-16T12:53:01;101492.56;;;21.93;63.69
75359;BME280;64046;51.978;5.934;2022-10-16T12:55:42;101495.53;;;22.11;63.40
75359;BME280;64046;51.978;5.934;2022-10-16T12:58:28;101500.63;;;22.15;63.54
75359;BME280;64046;51.978;5.934;2022-10-16T13:01:08;101492.03;;;22.11;62.67
75359;BME280;64046;51.978;5.934;2022-10-16T13:03:57;101491.44;;;22.07;62.43
75359;BME280;64046;51.978;5.934;2022-10-16T13:06:36;101490.09;;;22.02;62.98
75359;BME280;64046;51.978;5.934;2022-10-16T13:09:17;101494.22;;;22.06;62.47
75359;BME280;64046;51.978;5.934;2022-10-16T13:12:01;101492.88;;;22.11;61.43
75359;BME280;64046;51.978;5.934;2022-10-16T13:15:02;101497.69;;;22.18;61.13
75359;BME280;64046;51.978;5.934;2022-10-16T13:17:40;101495.66;;;22.10;61.58
75359;BME280;64046;51.978;5.934;2022-10-16T13:20:17;101490.19;;;22.11;61.98